sensor_id;sensor_type;location;lat;lon;timestamp;P1;durP1;ratioP1;P2;durP2;ratioP2
60969;SDS011;46841;48.938;9.502;2024-02-16T00:02:01;0.63;;;0.63;;
60969;SDS011;46841;48.938;9.502;2024-02-16T00:04:27;0.60;;;0.60;;
60969;SDS011;46841;48.938;9.502;2024-02-16T00:06:53;0.68;;;0.68;;
60969;SDS011;46841;48.938;9.502;2024-02-16T00:09:18;0.60;;;0.60;;
60969;SDS011;46841;48.938;9.502;2024-02-16T00:11:44;0.70;;;0.70;;
60969;SDS011;46841;48.938;9.502;2024-02-16T00:14:10;0.60;;;0.60;;
60969;SDS011;46841;48.938;9.502;2024-02-16T00:16:35;0.60;;;0.60;;
60969;SDS011;46841;48.938;9.502;2024-02-16T00:19:05;0.70;;;0.70;;
60969;SDS011;46841;48.938;9.502;2024-02-16T00:21:30;0.60;;;0.60;;
60969;SDS011;46841;48.938;9.502;2024-02-16T00:23:57;0.60;;;0.60;;
60969;SDS011;46841;48.938;9.502;2024-02-16T00:26:24;0.60;;;0.60;;
60969;SDS011;46841;48.938;9.502;2024-02-16T00:28:51;0.70;;;0.70;;
60969;SDS011;46841;48.938;9.502;2024-02-16T00:31:16;0.60;;;0.60;;
60969;SDS011;46841;48.938;9.502;2024-02-16T00:33:42;0.60;;;0.60;;
60969;SDS011;46841;48.938;9.502;2024-02-16T00:36:07;0.70;;;0.70;;
60969;SDS011;46841;48.938;9.502;2024-02-16T00:41:01;0.70;;;0.70;;
60969;SDS011;46841;48.938;9.502;2024-02-16T00:43:27;0.70;;;0.70;;
60969;SDS011;46841;48.938;9.502;2024-02-16T00:45:53;0.70;;;0.70;;
60969;SDS011;46841;48.938;9.502;2024-02-16T00:48:19;0.60;;;0.60;;
60969;SDS011;46841;48.938;9.502;2024-02-16T00:50:44;0.60;;;0.60;;
60969;SDS011;46841;48.938;9.502;2024-02-16T00:53:10;0.60;;;0.60;;
60969;SDS011;46841;48.938;9.502;2024-02-16T00:55:35;0.50;;;0.50;;
60969;SDS011;46841;48.938;9.502;2024-02-16T00:58:02;0.60;;;0.60;;
60969;SDS011;46841;48.938;9.502;2024-02-16T01:00:27;0.70;;;0.70;;
60969;SDS011;46841;48.938;9.502;2024-02-16T01:02:53;0.60;;;0.60;;
60969;SDS011;46841;48.938;9.502;2024-02-16T01:05:18;0.60;;;0.60;;
60969;SDS011;46841;48.938;9.502;2024-02-16T01:07:45;0.70;;;0.70;;
60969;SDS011;46841;48.938;9.502;2024-02-16T01:10:10;0.70;;;0.70;;
60969;SDS011;46841;48.938;9.502;2024-02-16T01:15:04;0.70;;;0.70;;
60969;SDS011;46841;48.938;9.502;2024-02-16T01:17:30;0.70;;;0.70;;
60969;SDS011;46841;48.938;9.502;2024-02-16T01:19:57;0.68;;;0.68;;
60969;SDS011;46841;48.938;9.502;2024-02-16T01:22:23;0.60;;;0.60;;
60969;SDS011;46841;48.938;9.502;2024-02-16T01:24:49;0.60;;;0.60;;
60969;SDS011;46841;48.938;9.502;2024-02-16T01:27:15;0.60;;;0.60;;
60969;SDS011;46841;48.938;9.502;2024-02-16T01:29:41;0.70;;;0.70;;
60969;SDS011;46841;48.938;9.502;2024-02-16T01:32:07;0.60;;;0.60;;
60969;SDS011;46841;48.938;9.502;2024-02-16T01:34:32;0.60;;;0.60;;
60969;SDS011;46841;48.938;9.502;2024-02-16T01:36:58;0.70;;;0.70;;
60969;SDS011;46841;48.938;9.502;2024-02-16T01:39:23;0.60;;;0.60;;
60969;SDS011;46841;48.938;9.502;2024-02-16T01:41:50;0.70;;;0.70;;
60969;SDS011;46841;48.938;9.502;2024-02-16T01:44:16;0.70;;;0.70;;
60969;SDS011;46841;48.938;9.502;2024-02-16T01:46:42;0.70;;;0.70;;
60969;SDS011;46841;48.938;9.502;2024-02-16T01:49:09;0.70;;;0.70;;
60969;SDS011;46841;48.938;9.502;2024-02-16T01:51:35;0.60;;;0.60;;
60969;SDS011;46841;48.938;9.502;2024-02-16T01:54:02;0.70;;;0.70;;
60969;SDS011;46841;48.938;9.502;2024-02-16T01:56:28;0.60;;;0.60;;
60969;SDS011;46841;48.938;9.502;2024-02-16T01:58:55;0.70;;;0.70;;
60969;SDS011;46841;48.938;9.502;2024-02-16T02:01:22;0.70;;;0.70;;
60969;SDS011;46841;48.938;9.502;2024-02-16T02:03:47;0.60;;;0.60;;
60969;SDS011;46841;48.938;9.502;2024-02-16T02:06:15;0.70;;;0.70;;
60969;SDS011;46841;48.938;9.502;2024-02-16T02:08:41;0.70;;;0.70;;
60969;SDS011;46841;48.938;9.502;2024-02-16T02:11:06;0.70;;;0.70;;
60969;SDS011;46841;48.938;9.502;2024-02-16T02:13:32;0.60;;;0.60;;
60969;SDS011;46841;48.938;9.502;2024-02-16T02:15:57;0.60;;;0.60;;
60969;SDS011;46841;48.938;9.502;2024-02-16T02:18:24;0.70;;;0.70;;
60969;SDS011;46841;48.938;9.502;2024-02-16T02:20:53;0.60;;;0.60;;
60969;SDS011;46841;48.938;9.502;2024-02-16T02:23:18;0.70;;;0.70;;
60969;SDS011;46841;48.938;9.502;2024-02-16T02:25:47;0.63;;;0.63;;
60969;SDS011;46841;48.938;9.502;2024-02-16T02:28:14;0.63;;;0.63;;
60969;SDS011;46841;48.938;9.502;2024-02-16T02:30:41;0.60;;;0.60;;
60969;SDS011;46841;48.938;9.502;2024-02-16T02:33:06;0.60;;;0.60;;
60969;SDS011;46841;48.938;9.502;2024-02-16T02:35:33;0.70;;;0.70;;
60969;SDS011;46841;48.938;9.502;2024-02-16T02:37:58;0.60;;;0.60;;
60969;SDS011;46841;48.938;9.502;2024-02-16T02:40:24;0.60;;;0.60;;
60969;SDS011;46841;48.938;9.502;2024-02-16T02:42:50;0.60;;;0.60;;
60969;SDS011;46841;48.938;9.502;2024-02-16T02:45:16;0.60;;;0.60;;
60969;SDS011;46841;48.938;9.502;2024-02-16T02:47:42;0.63;;;0.63;;
60969;SDS011;46841;48.938;9.502;2024-02-16T02:50:08;0.60;;;0.60;;
60969;SDS011;46841;48.938;9.502;2024-02-16T02:52:36;0.60;;;0.60;;
60969;SDS011;46841;48.938;9.502;2024-02-16T02:55:03;0.70;;;0.70;;
60969;SDS011;46841;48.938;9.502;2024-02-16T02:57:34;0.60;;;0.60;;
60969;SDS011;46841;48.938;9.502;2024-02-16T03:00:06;0.60;;;0.60;;
60969;SDS011;46841;48.938;9.502;2024-02-16T03:02:38;0.60;;;0.60;;
60969;SDS011;46841;48.938;9.502;2024-02-16T03:05:06;0.70;;;0.70;;
60969;SDS011;46841;48.938;9.502;2024-02-16T03:07:33;0.60;;;0.60;;
60969;SDS011;46841;48.938;9.502;2024-02-16T03:09:59;0.60;;;0.60;;
60969;SDS011;46841;48.938;9.502;2024-02-16T03:12:24;0.60;;;0.60;;
60969;SDS011;46841;48.938;9.502;2024-02-16T03:14:50;0.60;;;0.60;;
60969;SDS011;46841;48.938;9.502;2024-02-16T03:17:18;0.63;;;0.63;;
60969;SDS011;46841;48.938;9.502;2024-02-16T03:19:45;0.60;;;0.60;;
60969;SDS011;46841;48.938;9.502;2024-02-16T03:22:12;0.60;;;0.60;;
60969;SDS011;46841;48.938;9.502;2024-02-16T03:24:38;0.70;;;0.70;;
60969;SDS011;46841;48.938;9.502;2024-02-16T03:27:04;0.60;;;0.60;;
60969;SDS011;46841;48.938;9.502;2024-02-16T03:29:30;0.60;;;0.60;;
60969;SDS011;46841;48.938;9.502;2024-02-16T03:31:55;0.60;;;0.60;;
60969;SDS011;46841;48.938;9.502;2024-02-16T03:34:22;0.60;;;0.60;;
60969;SDS011;46841;48.938;9.502;2024-02-16T03:36:49;0.60;;;0.60;;
60969;SDS011;46841;48.938;9.502;2024-02-16T03:39:15;0.60;;;0.60;;
60969;SDS011;46841;48.938;9.502;2024-02-16T03:41:45;0.70;;;0.70;;
60969;SDS011;46841;48.938;9.502;2024-02-16T03:44:14;0.60;;;0.60;;
60969;SDS011;46841;48.938;9.502;2024-02-16T03:46:43;0.60;;;0.60;;
60969;SDS011;46841;48.938;9.502;2024-02-16T03:49:08;0.60;;;0.60;;
60969;SDS011;46841;48.938;9.502;2024-02-16T03:51:35;0.70;;;0.70;;
60969;SDS011;46841;48.938;9.502;2024-02-16T03:54:02;0.60;;;0.60;;
60969;SDS011;46841;48.938;9.502;2024-02-16T03:56:29;0.60;;;0.60;;
60969;SDS011;46841;48.938;9.502;2024-02-16T03:58:55;0.70;;;0.70;;
60969;SDS011;46841;48.938;9.502;2024-02-16T04:01:22;0.70;;;0.70;;
60969;SDS011;46841;48.938;9.502;2024-02-16T04:03:48;0.60;;;0.60;;
60969;SDS011;46841;48.938;9.502;2024-02-16T04:06:15;0.70;;;0.70;;
60969;SDS011;46841;48.938;9.502;2024-02-16T04:08:42;0.70;;;0.70;;
60969;SDS011;46841;48.938;9.502;2024-02-16T04:11:10;0.60;;;0.60;;
60969;SDS011;46841;48.938;9.502;2024-02-16T04:13:37;0.57;;;0.57;;
60969;SDS011;46841;48.938;9.502;2024-02-16T04:16:04;0.70;;;0.70;;
60969;SDS011;46841;48.938;9.502;2024-02-16T04:18:29;0.60;;;0.60;;
60969;SDS011;46841;48.938;9.502;2024-02-16T04:20:55;0.60;;;0.60;;
60969;SDS011;46841;48.938;9.502;2024-02-16T04:23:23;0.60;;;0.60;;
60969;SDS011;46841;48.938;9.502;2024-02-16T04:25:48;0.60;;;0.60;;
60969;SDS011;46841;48.938;9.502;2024-02-16T04:28:15;0.68;;;0.68;;
60969;SDS011;46841;48.938;9.502;2024-02-16T04:30:44;0.60;;;0.60;;
60969;SDS011;46841;48.938;9.502;2024-02-16T04:33:10;0.60;;;0.60;;
60969;SDS011;46841;48.938;9.502;2024-02-16T04:35:35;0.70;;;0.70;;
60969;SDS011;46841;48.938;9.502;2024-02-16T04:38:01;0.60;;;0.60;;
60969;SDS011;46841;48.938;9.502;2024-02-16T04:40:27;0.65;;;0.65;;
60969;SDS011;46841;48.938;9.502;2024-02-16T04:42:53;0.60;;;0.60;;
60969;SDS011;46841;48.938;9.502;2024-02-16T04:45:18;0.70;;;0.70;;
60969;SDS011;46841;48.938;9.502;2024-02-16T04:47:53;0.70;;;0.70;;
60969;SDS011;46841;48.938;9.502;2024-02-16T04:50:25;0.60;;;0.60;;
60969;SDS011;46841;48.938;9.502;2024-02-16T04:52:50;0.68;;;0.68;;
60969;SDS011;46841;48.938;9.502;2024-02-16T04:55:19;0.70;;;0.70;;
60969;SDS011;46841;48.938;9.502;2024-02-16T04:57:44;0.60;;;0.60;;
60969;SDS011;46841;48.938;9.502;2024-02-16T05:00:18;0.68;;;0.68;;
60969;SDS011;46841;48.938;9.502;2024-02-16T05:02:45;0.70;;;0.70;;
60969;SDS011;46841;48.938;9.502;2024-02-16T05:05:12;0.63;;;0.63;;
60969;SDS011;46841;48.938;9.502;2024-02-16T05:07:38;0.60;;;0.60;;
60969;SDS011;46841;48.938;9.502;2024-02-16T05:10:03;0.60;;;0.60;;
60969;SDS011;46841;48.938;9.502;2024-02-16T05:12:33;0.60;;;0.60;;
60969;SDS011;46841;48.938;9.502;2024-02-16T05:14:59;0.68;;;0.68;;
60969;SDS011;46841;48.938;9.502;2024-02-16T05:17:25;0.60;;;0.60;;
60969;SDS011;46841;48.938;9.502;2024-02-16T05:19:51;0.60;;;0.60;;
60969;SDS011;46841;48.938;9.502;2024-02-16T05:22:19;0.63;;;0.63;;
60969;SDS011;46841;48.938;9.502;2024-02-16T05:24:49;0.60;;;0.60;;
60969;SDS011;46841;48.938;9.502;2024-02-16T05:27:15;0.60;;;0.60;;
60969;SDS011;46841;48.938;9.502;2024-02-16T05:29:40;0.60;;;0.60;;
60969;SDS011;46841;48.938;9.502;2024-02-16T05:32:06;0.60;;;0.60;;
60969;SDS011;46841;48.938;9.502;2024-02-16T05:34:32;0.60;;;0.60;;
60969;SDS011;46841;48.938;9.502;2024-02-16T05:37:06;0.60;;;0.60;;
60969;SDS011;46841;48.938;9.502;2024-02-16T05:39:36;0.60;;;0.60;;
60969;SDS011;46841;48.938;9.502;2024-02-16T05:42:18;0.70;;;0.70;;
60969;SDS011;46841;48.938;9.502;2024-02-16T05:44:46;0.70;;;0.70;;
60969;SDS011;46841;48.938;9.502;2024-02-16T05:47:12;0.60;;;0.60;;
60969;SDS011;46841;48.938;9.502;2024-02-16T05:49:37;0.60;;;0.60;;
60969;SDS011;46841;48.938;9.502;2024-02-16T05:52:05;0.60;;;0.60;;
60969;SDS011;46841;48.938;9.502;2024-02-16T05:54:46;0.60;;;0.60;;
60969;SDS011;46841;48.938;9.502;2024-02-16T05:57:15;0.60;;;0.60;;
60969;SDS011;46841;48.938;9.502;2024-02-16T05:59:41;0.68;;;0.68;;
60969;SDS011;46841;48.938;9.502;2024-02-16T06:02:08;0.60;;;0.60;;
60969;SDS011;46841;48.938;9.502;2024-02-16T06:04:37;0.60;;;0.60;;
60969;SDS011;46841;48.938;9.502;2024-02-16T06:07:05;0.60;;;0.60;;
60969;SDS011;46841;48.938;9.502;2024-02-16T06:09:31;0.60;;;0.60;;
60969;SDS011;46841;48.938;9.502;2024-02-16T06:12:02;0.60;;;0.60;;
60969;SDS011;46841;48.938;9.502;2024-02-16T06:14:34;0.60;;;0.60;;
60969;SDS011;46841;48.938;9.502;2024-02-16T06:17:02;0.57;;;0.57;;
60969;SDS011;46841;48.938;9.502;2024-02-16T06:19:27;0.60;;;0.60;;
60969;SDS011;46841;48.938;9.502;2024-02-16T06:21:53;0.60;;;0.60;;
60969;SDS011;46841;48.938;9.502;2024-02-16T06:24:24;0.60;;;0.60;;
60969;SDS011;46841;48.938;9.502;2024-02-16T06:26:50;0.70;;;0.70;;
60969;SDS011;46841;48.938;9.502;2024-02-16T06:29:19;0.68;;;0.68;;
60969;SDS011;46841;48.938;9.502;2024-02-16T06:31:48;0.60;;;0.60;;
60969;SDS011;46841;48.938;9.502;2024-02-16T06:34:15;0.60;;;0.60;;
60969;SDS011;46841;48.938;9.502;2024-02-16T06:36:41;0.60;;;0.60;;
60969;SDS011;46841;48.938;9.502;2024-02-16T06:39:10;0.70;;;0.70;;
60969;SDS011;46841;48.938;9.502;2024-02-16T06:41:38;0.60;;;0.60;;
60969;SDS011;46841;48.938;9.502;2024-02-16T06:44:13;0.60;;;0.60;;
60969;SDS011;46841;48.938;9.502;2024-02-16T06:46:44;0.50;;;0.50;;
60969;SDS011;46841;48.938;9.502;2024-02-16T06:49:19;0.60;;;0.60;;
60969;SDS011;46841;48.938;9.502;2024-02-16T06:51:48;0.60;;;0.60;;
60969;SDS011;46841;48.938;9.502;2024-02-16T06:54:13;0.70;;;0.70;;
60969;SDS011;46841;48.938;9.502;2024-02-16T06:56:55;0.60;;;0.60;;
60969;SDS011;46841;48.938;9.502;2024-02-16T06:59:21;0.70;;;0.70;;
60969;SDS011;46841;48.938;9.502;2024-02-16T07:01:55;0.70;;;0.70;;
60969;SDS011;46841;48.938;9.502;2024-02-16T07:04:27;0.60;;;0.60;;
60969;SDS011;46841;48.938;9.502;2024-02-16T07:06:54;0.70;;;0.70;;
60969;SDS011;46841;48.938;9.502;2024-02-16T07:09:26;0.60;;;0.60;;
60969;SDS011;46841;48.938;9.502;2024-02-16T07:11:51;0.60;;;0.60;;
60969;SDS011;46841;48.938;9.502;2024-02-16T07:14:18;0.70;;;0.70;;
60969;SDS011;46841;48.938;9.502;2024-02-16T07:16:43;0.70;;;0.70;;
60969;SDS011;46841;48.938;9.502;2024-02-16T07:19:10;0.70;;;0.70;;
60969;SDS011;46841;48.938;9.502;2024-02-16T07:21:35;0.70;;;0.70;;
60969;SDS011;46841;48.938;9.502;2024-02-16T07:24:01;0.70;;;0.70;;
60969;SDS011;46841;48.938;9.502;2024-02-16T07:26:27;0.60;;;0.60;;
60969;SDS011;46841;48.938;9.502;2024-02-16T07:31:21;0.70;;;0.70;;
60969;SDS011;46841;48.938;9.502;2024-02-16T07:33:48;0.60;;;0.60;;
60969;SDS011;46841;48.938;9.502;2024-02-16T07:36:14;0.50;;;0.50;;
60969;SDS011;46841;48.938;9.502;2024-02-16T07:38:41;0.60;;;0.60;;
60969;SDS011;46841;48.938;9.502;2024-02-16T07:41:09;0.60;;;0.60;;
60969;SDS011;46841;48.938;9.502;2024-02-16T07:43:35;0.60;;;0.60;;
60969;SDS011;46841;48.938;9.502;2024-02-16T07:46:01;0.55;;;0.55;;
60969;SDS011;46841;48.938;9.502;2024-02-16T07:48:28;0.60;;;0.60;;
60969;SDS011;46841;48.938;9.502;2024-02-16T07:50:55;0.50;;;0.50;;
60969;SDS011;46841;48.938;9.502;2024-02-16T07:53:25;0.57;;;0.57;;
60969;SDS011;46841;48.938;9.502;2024-02-16T07:55:51;0.50;;;0.50;;
60969;SDS011;46841;48.938;9.502;2024-02-16T07:58:16;0.57;;;0.57;;
60969;SDS011;46841;48.938;9.502;2024-02-16T08:00:44;0.52;;;0.52;;
60969;SDS011;46841;48.938;9.502;2024-02-16T08:03:10;0.60;;;0.60;;
60969;SDS011;46841;48.938;9.502;2024-02-16T08:05:35;0.60;;;0.60;;
60969;SDS011;46841;48.938;9.502;2024-02-16T08:08:05;0.60;;;0.60;;
60969;SDS011;46841;48.938;9.502;2024-02-16T08:10:31;0.60;;;0.60;;
60969;SDS011;46841;48.938;9.502;2024-02-16T08:12:58;0.60;;;0.60;;
60969;SDS011;46841;48.938;9.502;2024-02-16T08:17:51;0.60;;;0.60;;
60969;SDS011;46841;48.938;9.502;2024-02-16T08:20:17;0.60;;;0.60;;
60969;SDS011;46841;48.938;9.502;2024-02-16T08:22:46;0.50;;;0.50;;
60969;SDS011;46841;48.938;9.502;2024-02-16T08:25:12;0.57;;;0.57;;
60969;SDS011;46841;48.938;9.502;2024-02-16T08:27:41;0.50;;;0.50;;
60969;SDS011;46841;48.938;9.502;2024-02-16T08:30:09;0.60;;;0.60;;
60969;SDS011;46841;48.938;9.502;2024-02-16T08:32:37;0.50;;;0.50;;
60969;SDS011;46841;48.938;9.502;2024-02-16T08:35:02;0.60;;;0.60;;
60969;SDS011;46841;48.938;9.502;2024-02-16T08:37:28;0.50;;;0.50;;
60969;SDS011;46841;48.938;9.502;2024-02-16T08:39:54;0.50;;;0.50;;
60969;SDS011;46841;48.938;9.502;2024-02-16T08:42:21;0.60;;;0.60;;
60969;SDS011;46841;48.938;9.502;2024-02-16T08:52:47;0.40;;;0.40;;
60969;SDS011;46841;48.938;9.502;2024-02-16T08:55:13;0.30;;;0.30;;
60969;SDS011;46841;48.938;9.502;2024-02-16T08:57:40;0.40;;;0.40;;
60969;SDS011;46841;48.938;9.502;2024-02-16T09:00:12;0.30;;;0.30;;
60969;SDS011;46841;48.938;9.502;2024-02-16T09:02:38;0.40;;;0.40;;
60969;SDS011;46841;48.938;9.502;2024-02-16T09:05:04;0.40;;;0.40;;
60969;SDS011;46841;48.938;9.502;2024-02-16T09:07:31;0.40;;;0.40;;
60969;SDS011;46841;48.938;9.502;2024-02-16T09:09:57;0.40;;;0.40;;
60969;SDS011;46841;48.938;9.502;2024-02-16T09:12:23;0.30;;;0.30;;
60969;SDS011;46841;48.938;9.502;2024-02-16T09:14:50;0.30;;;0.30;;
60969;SDS011;46841;48.938;9.502;2024-02-16T09:17:17;0.40;;;0.40;;
60969;SDS011;46841;48.938;9.502;2024-02-16T09:19:44;0.30;;;0.30;;
60969;SDS011;46841;48.938;9.502;2024-02-16T09:22:11;0.30;;;0.30;;
60969;SDS011;46841;48.938;9.502;2024-02-16T09:24:46;0.30;;;0.30;;
60969;SDS011;46841;48.938;9.502;2024-02-16T09:27:13;0.30;;;0.30;;
60969;SDS011;46841;48.938;9.502;2024-02-16T09:29:39;0.30;;;0.30;;
60969;SDS011;46841;48.938;9.502;2024-02-16T09:32:06;0.10;;;0.10;;
60969;SDS011;46841;48.938;9.502;2024-02-16T09:34:35;0.20;;;0.20;;
60969;SDS011;46841;48.938;9.502;2024-02-16T09:37:00;0.20;;;0.20;;
60969;SDS011;46841;48.938;9.502;2024-02-16T09:39:26;0.17;;;0.17;;
60969;SDS011;46841;48.938;9.502;2024-02-16T09:41:53;0.10;;;0.10;;
60969;SDS011;46841;48.938;9.502;2024-02-16T09:44:23;0.13;;;0.13;;
60969;SDS011;46841;48.938;9.502;2024-02-16T09:46:49;0.20;;;0.20;;
60969;SDS011;46841;48.938;9.502;2024-02-16T09:49:15;0.15;;;0.15;;
60969;SDS011;46841;48.938;9.502;2024-02-16T09:51:43;0.10;;;0.10;;
60969;SDS011;46841;48.938;9.502;2024-02-16T09:54:11;0.10;;;0.10;;
60969;SDS011;46841;48.938;9.502;2024-02-16T09:56:37;0.10;;;0.10;;
60969;SDS011;46841;48.938;9.502;2024-02-16T09:59:03;0.10;;;0.10;;
60969;SDS011;46841;48.938;9.502;2024-02-16T10:01:30;0.10;;;0.10;;
60969;SDS011;46841;48.938;9.502;2024-02-16T10:04:06;0.10;;;0.10;;
60969;SDS011;46841;48.938;9.502;2024-02-16T10:06:33;0.10;;;0.10;;
60969;SDS011;46841;48.938;9.502;2024-02-16T10:09:21;0.10;;;0.10;;
60969;SDS011;46841;48.938;9.502;2024-02-16T10:11:52;0.10;;;0.10;;
60969;SDS011;46841;48.938;9.502;2024-02-16T10:16:47;0.10;;;0.10;;
60969;SDS011;46841;48.938;9.502;2024-02-16T10:19:27;0.10;;;0.10;;
60969;SDS011;46841;48.938;9.502;2024-02-16T10:21:53;0.10;;;0.10;;
60969;SDS011;46841;48.938;9.502;2024-02-16T10:26:52;0.10;;;0.10;;
60969;SDS011;46841;48.938;9.502;2024-02-16T10:29:21;0.10;;;0.10;;
60969;SDS011;46841;48.938;9.502;2024-02-16T10:31:52;0.10;;;0.10;;
60969;SDS011;46841;48.938;9.502;2024-02-16T10:34:20;0.20;;;0.20;;
60969;SDS011;46841;48.938;9.502;2024-02-16T10:36:51;0.10;;;0.10;;
60969;SDS011;46841;48.938;9.502;2024-02-16T10:39:18;0.10;;;0.10;;
60969;SDS011;46841;48.938;9.502;2024-02-16T10:41:47;0.20;;;0.20;;
60969;SDS011;46841;48.938;9.502;2024-02-16T10:44:14;0.10;;;0.10;;
60969;SDS011;46841;48.938;9.502;2024-02-16T10:46:43;0.20;;;0.20;;
60969;SDS011;46841;48.938;9.502;2024-02-16T10:49:09;0.20;;;0.20;;
60969;SDS011;46841;48.938;9.502;2024-02-16T10:51:37;0.10;;;0.10;;
60969;SDS011;46841;48.938;9.502;2024-02-16T10:54:09;0.20;;;0.20;;
60969;SDS011;46841;48.938;9.502;2024-02-16T11:26:02;0.20;;;0.20;;
60969;SDS011;46841;48.938;9.502;2024-02-16T11:28:47;0.10;;;0.10;;
60969;SDS011;46841;48.938;9.502;2024-02-16T11:31:22;0.20;;;0.20;;
60969;SDS011;46841;48.938;9.502;2024-02-16T11:33:53;0.20;;;0.20;;
60969;SDS011;46841;48.938;9.502;2024-02-16T11:36:19;0.20;;;0.20;;
60969;SDS011;46841;48.938;9.502;2024-02-16T11:38:49;0.10;;;0.10;;
60969;SDS011;46841;48.938;9.502;2024-02-16T11:41:15;0.20;;;0.20;;
60969;SDS011;46841;48.938;9.502;2024-02-16T11:43:42;0.20;;;0.20;;
60969;SDS011;46841;48.938;9.502;2024-02-16T11:46:11;0.20;;;0.20;;
60969;SDS011;46841;48.938;9.502;2024-02-16T11:48:38;0.20;;;0.20;;
60969;SDS011;46841;48.938;9.502;2024-02-16T11:51:05;0.20;;;0.20;;
60969;SDS011;46841;48.938;9.502;2024-02-16T11:53:32;0.20;;;0.20;;
60969;SDS011;46841;48.938;9.502;2024-02-16T11:56:01;0.20;;;0.20;;
60969;SDS011;46841;48.938;9.502;2024-02-16T11:58:27;0.20;;;0.20;;
60969;SDS011;46841;48.938;9.502;2024-02-16T12:00:53;0.20;;;0.20;;
60969;SDS011;46841;48.938;9.502;2024-02-16T12:03:19;0.23;;;0.23;;
60969;SDS011;46841;48.938;9.502;2024-02-16T12:05:51;0.20;;;0.20;;
60969;SDS011;46841;48.938;9.502;2024-02-16T12:08:19;0.20;;;0.20;;
60969;SDS011;46841;48.938;9.502;2024-02-16T12:10:49;0.20;;;0.20;;
60969;SDS011;46841;48.938;9.502;2024-02-16T12:13:18;0.20;;;0.20;;
60969;SDS011;46841;48.938;9.502;2024-02-16T12:15:50;0.20;;;0.20;;
60969;SDS011;46841;48.938;9.502;2024-02-16T12:18:22;0.20;;;0.20;;
60969;SDS011;46841;48.938;9.502;2024-02-16T12:20:56;0.20;;;0.20;;
60969;SDS011;46841;48.938;9.502;2024-02-16T12:23:44;0.20;;;0.20;;
60969;SDS011;46841;48.938;9.502;2024-02-16T12:26:10;0.20;;;0.20;;
60969;SDS011;46841;48.938;9.502;2024-02-16T12:28:39;0.20;;;0.20;;
60969;SDS011;46841;48.938;9.502;2024-02-16T12:31:06;0.20;;;0.20;;
60969;SDS011;46841;48.938;9.502;2024-02-16T12:33:35;0.15;;;0.15;;
60969;SDS011;46841;48.938;9.502;2024-02-16T12:36:01;0.20;;;0.20;;
60969;SDS011;46841;48.938;9.502;2024-02-16T12:38:30;0.20;;;0.20;;
60969;SDS011;46841;48.938;9.502;2024-02-16T12:40:59;0.20;;;0.20;;
60969;SDS011;46841;48.938;9.502;2024-02-16T12:43:25;0.20;;;0.20;;
60969;SDS011;46841;48.938;9.502;2024-02-16T12:45:51;0.20;;;0.20;;
60969;SDS011;46841;48.938;9.502;2024-02-16T12:48:24;0.20;;;0.20;;
60969;SDS011;46841;48.938;9.502;2024-02-16T12:50:54;0.20;;;0.20;;
60969;SDS011;46841;48.938;9.502;2024-02-16T12:53:21;0.20;;;0.20;;
60969;SDS011;46841;48.938;9.502;2024-02-16T12:55:50;0.10;;;0.10;;
60969;SDS011;46841;48.938;9.502;2024-02-16T12:58:16;0.20;;;0.20;;
60969;SDS011;46841;48.938;9.502;2024-02-16T13:00:42;0.20;;;0.20;;
60969;SDS011;46841;48.938;9.502;2024-02-16T13:05:34;0.30;;;0.30;;
60969;SDS011;46841;48.938;9.502;2024-02-16T13:08:06;0.20;;;0.20;;
60969;SDS011;46841;48.938;9.502;2024-02-16T13:10:32;0.20;;;0.20;;
60969;SDS011;46841;48.938;9.502;2024-02-16T13:12:59;0.20;;;0.20;;
60969;SDS011;46841;48.938;9.502;2024-02-16T13:15:28;0.25;;;0.25;;
60969;SDS011;46841;48.938;9.502;2024-02-16T13:17:56;0.20;;;0.20;;
60969;SDS011;46841;48.938;9.502;2024-02-16T13:20:25;0.30;;;0.30;;
60969;SDS011;46841;48.938;9.502;2024-02-16T13:22:51;0.30;;;0.30;;
60969;SDS011;46841;48.938;9.502;2024-02-16T13:25:19;0.20;;;0.20;;
60969;SDS011;46841;48.938;9.502;2024-02-16T13:27:48;0.30;;;0.30;;
60969;SDS011;46841;48.938;9.502;2024-02-16T13:30:17;0.30;;;0.30;;
60969;SDS011;46841;48.938;9.502;2024-02-16T13:32:45;0.22;;;0.22;;
60969;SDS011;46841;48.938;9.502;2024-02-16T13:35:11;0.25;;;0.25;;
60969;SDS011;46841;48.938;9.502;2024-02-16T13:40:06;0.22;;;0.22;;
60969;SDS011;46841;48.938;9.502;2024-02-16T13:42:40;0.30;;;0.30;;
60969;SDS011;46841;48.938;9.502;2024-02-16T13:45:07;0.30;;;0.30;;
60969;SDS011;46841;48.938;9.502;2024-02-16T13:47:34;0.30;;;0.30;;
60969;SDS011;46841;48.938;9.502;2024-02-16T13:50:00;0.30;;;0.30;;
60969;SDS011;46841;48.938;9.502;2024-02-16T13:52:27;0.30;;;0.30;;
60969;SDS011;46841;48.938;9.502;2024-02-16T13:54:54;0.20;;;0.20;;
60969;SDS011;46841;48.938;9.502;2024-02-16T13:57:20;0.30;;;0.30;;
60969;SDS011;46841;48.938;9.502;2024-02-16T13:59:46;0.30;;;0.30;;
60969;SDS011;46841;48.938;9.502;2024-02-16T14:02:15;0.30;;;0.30;;
60969;SDS011;46841;48.938;9.502;2024-02-16T14:04:41;0.30;;;0.30;;
60969;SDS011;46841;48.938;9.502;2024-02-16T14:07:07;0.20;;;0.20;;
60969;SDS011;46841;48.938;9.502;2024-02-16T14:09:35;0.30;;;0.30;;
60969;SDS011;46841;48.938;9.502;2024-02-16T14:41:43;0.30;;;0.30;;
60969;SDS011;46841;48.938;9.502;2024-02-16T14:44:09;0.30;;;0.30;;
60969;SDS011;46841;48.938;9.502;2024-02-16T15:02:47;0.30;;;0.30;;
60969;SDS011;46841;48.938;9.502;2024-02-16T15:05:13;0.22;;;0.22;;
60969;SDS011;46841;48.938;9.502;2024-02-16T15:07:39;0.20;;;0.20;;
60969;SDS011;46841;48.938;9.502;2024-02-16T15:10:08;0.30;;;0.30;;
60969;SDS011;46841;48.938;9.502;2024-02-16T15:12:37;0.30;;;0.30;;
60969;SDS011;46841;48.938;9.502;2024-02-16T15:15:05;0.30;;;0.30;;
60969;SDS011;46841;48.938;9.502;2024-02-16T15:17:32;0.22;;;0.22;;
60969;SDS011;46841;48.938;9.502;2024-02-16T15:19:59;0.30;;;0.30;;
60969;SDS011;46841;48.938;9.502;2024-02-16T15:22:30;0.30;;;0.30;;
60969;SDS011;46841;48.938;9.502;2024-02-16T15:24:56;0.30;;;0.30;;
60969;SDS011;46841;48.938;9.502;2024-02-16T15:27:22;0.30;;;0.30;;
60969;SDS011;46841;48.938;9.502;2024-02-16T15:37:55;0.30;;;0.30;;
60969;SDS011;46841;48.938;9.502;2024-02-16T15:40:21;0.30;;;0.30;;
60969;SDS011;46841;48.938;9.502;2024-02-16T15:43:02;0.30;;;0.30;;
60969;SDS011;46841;48.938;9.502;2024-02-16T15:45:30;0.30;;;0.30;;
60969;SDS011;46841;48.938;9.502;2024-02-16T15:47:56;0.30;;;0.30;;
60969;SDS011;46841;48.938;9.502;2024-02-16T15:50:22;0.30;;;0.30;;
60969;SDS011;46841;48.938;9.502;2024-02-16T15:52:50;0.30;;;0.30;;
60969;SDS011;46841;48.938;9.502;2024-02-16T15:55:16;0.30;;;0.30;;
60969;SDS011;46841;48.938;9.502;2024-02-16T15:57:42;0.30;;;0.30;;
60969;SDS011;46841;48.938;9.502;2024-02-16T16:00:07;0.30;;;0.30;;
60969;SDS011;46841;48.938;9.502;2024-02-16T16:02:34;0.30;;;0.30;;
60969;SDS011;46841;48.938;9.502;2024-02-16T16:15:47;0.30;;;0.30;;
60969;SDS011;46841;48.938;9.502;2024-02-16T16:18:13;0.30;;;0.30;;
60969;SDS011;46841;48.938;9.502;2024-02-16T16:34:11;0.30;;;0.30;;
60969;SDS011;46841;48.938;9.502;2024-02-16T16:36:37;0.40;;;0.40;;
60969;SDS011;46841;48.938;9.502;2024-02-16T16:39:05;0.30;;;0.30;;
60969;SDS011;46841;48.938;9.502;2024-02-16T16:41:31;0.30;;;0.30;;
60969;SDS011;46841;48.938;9.502;2024-02-16T16:44:00;0.30;;;0.30;;
60969;SDS011;46841;48.938;9.502;2024-02-16T16:46:26;0.30;;;0.30;;
60969;SDS011;46841;48.938;9.502;2024-02-16T16:48:53;0.30;;;0.30;;
60969;SDS011;46841;48.938;9.502;2024-02-16T16:51:19;0.30;;;0.30;;
60969;SDS011;46841;48.938;9.502;2024-02-16T16:53:45;0.40;;;0.40;;
60969;SDS011;46841;48.938;9.502;2024-02-16T16:56:11;0.40;;;0.40;;
60969;SDS011;46841;48.938;9.502;2024-02-16T16:58:38;0.30;;;0.30;;
60969;SDS011;46841;48.938;9.502;2024-02-16T17:01:06;0.30;;;0.30;;
60969;SDS011;46841;48.938;9.502;2024-02-16T17:03:33;0.30;;;0.30;;
60969;SDS011;46841;48.938;9.502;2024-02-16T17:08:26;0.40;;;0.40;;